sensor_id;sensor_type;location;lat;lon;timestamp;pressure;altitude;pressure_sealevel;temperature;humidity
36354;BME280;22383;51.114;13.666;2022-07-12T00:01:19;68675.31;;;13.42;100.00
36354;BME280;22383;51.114;13.666;2022-07-12T00:03:46;68662.22;;;13.30;100.00
36354;BME280;22383;51.114;13.666;2022-07-12T00:06:14;68651.22;;;13.25;100.00
36354;BME280;22383;51.114;13.666;2022-07-12T00:08:41;68648.41;;;13.22;100.00
36354;BME280;22383;51.114;13.666;2022-07-12T00:11:09;68638.38;;;13.09;100.00
36354;BME280;22383;51.114;13.666;2022-07-12T00:13:36;68629.28;;;13.00;100.00
36354;BME280;22383;51.114;13.666;2022-07-12T00:16:04;68620.94;;;12.95;100.00
36354;BME280;22383;51.114;13.666;2022-07-12T00:18:31;68617.75;;;12.88;100.00
36354;BME280;22383;51.114;13.666;2022-07-12T00:20:59;68606.94;;;12.85;100.00
36354;BME280;22383;51.114;13.666;2022-07-12T00:23:26;68599.56;;;12.78;100.00
36354;BME280;22383;51.114;13.666;2022-07-12T00:25:53;68593.13;;;12.70;100.00
36354;BME280;22383;51.114;13.666;2022-07-12T00:28:20;68584.22;;;12.64;100.00
36354;BME280;22383;51.114;13.666;2022-07-12T00:30:47;68582.72;;;12.58;100.00
36354;BME280;22383;51.114;13.666;2022-07-12T00:33:15;68577.03;;;12.53;100.00
36354;BME280;22383;51.114;13.666;2022-07-12T00:35:42;68577.03;;;12.53;100.00
36354;BME280;22383;51.114;13.666;2022-07-12T00:38:09;68577.03;;;12.53;100.00
36354;BME280;22383;51.114;13.666;2022-07-12T00:40:36;68578.75;;;12.55;100.00
36354;BME280;22383;51.114;13.666;2022-07-12T00:43:04;68572.66;;;12.52;100.00
36354;BME280;22383;51.114;13.666;2022-07-12T00:45:31;68576.66;;;12.55;100.00
36354;BME280;22383;51.114;13.666;2022-07-12T00:47:58;68573.06;;;12.49;100.00
36354;BME280;22383;51.114;13.666;2022-07-12T00:50:26;68571.34;;;12.48;100.00
36354;BME280;22383;51.114;13.666;2022-07-12T00:52:54;68571.75;;;12.46;100.00
36354;BME280;22383;51.114;13.666;2022-07-12T00:55:39;68551.66;;;12.40;100.00
36354;BME280;22383;51.114;13.666;2022-07-12T00:58:06;68551.69;;;12.33;100.00
36354;BME280;22383;51.114;13.666;2022-07-12T01:00:33;68549.97;;;12.31;100.00
36354;BME280;22383;51.114;13.666;2022-07-12T01:03:02;68552.06;;;12.30;100.00
36354;BME280;22383;51.114;13.666;2022-07-12T01:05:30;68556.78;;;12.37;100.00
36354;BME280;22383;51.114;13.666;2022-07-12T01:07:57;68552.63;;;12.31;100.00
36354;BME280;22383;51.114;13.666;2022-07-12T01:10:25;68555.06;;;12.36;100.00
36354;BME280;22383;51.114;13.666;2022-07-12T01:12:52;68558.69;;;12.41;100.00
36354;BME280;22383;51.114;13.666;2022-07-12T01:15:25;68560.03;;;12.38;100.00
36354;BME280;22383;51.114;13.666;2022-07-12T01:17:54;68552.06;;;12.38;100.00
36354;BME280;22383;51.114;13.666;2022-07-12T01:20:23;68552.25;;;12.33;100.00
36354;BME280;22383;51.114;13.666;2022-07-12T01:22:55;68555.66;;;12.36;100.00
36354;BME280;22383;51.114;13.666;2022-07-12T01:25:25;68557.72;;;12.43;100.00
36354;BME280;22383;51.114;13.666;2022-07-12T01:27:52;68561.69;;;12.39;100.00
36354;BME280;22383;51.114;13.666;2022-07-12T01:30:20;68556.22;;;12.37;100.00
36354;BME280;22383;51.114;13.666;2022-07-12T01:32:47;68560.03;;;12.38;100.00
36354;BME280;22383;51.114;13.666;2022-07-12T01:35:15;68548.66;;;12.35;100.00
36354;BME280;22383;51.114;13.666;2022-07-12T01:37:43;68543.91;;;12.28;100.00
36354;BME280;22383;51.114;13.666;2022-07-12T01:40:13;68544.47;;;12.28;100.00
36354;BME280;22383;51.114;13.666;2022-07-12T01:42:41;68544.47;;;12.28;100.00
36354;BME280;22383;51.114;13.666;2022-07-12T01:45:11;68539.38;;;12.24;100.00
36354;BME280;22383;51.114;13.666;2022-07-12T01:47:39;68542.03;;;12.24;100.00
36354;BME280;22383;51.114;13.666;2022-07-12T01:50:08;68541.66;;;12.26;100.00
36354;BME280;22383;51.114;13.666;2022-07-12T01:52:38;68542.78;;;12.27;100.00
36354;BME280;22383;51.114;13.666;2022-07-12T01:55:10;68537.47;;;12.27;100.00
36354;BME280;22383;51.114;13.666;2022-07-12T01:57:41;68539.38;;;12.24;100.00
36354;BME280;22383;51.114;13.666;2022-07-12T02:00:08;68538.25;;;12.23;100.00
36354;BME280;22383;51.114;13.666;2022-07-12T02:02:36;68545.44;;;12.27;100.00
36354;BME280;22383;51.114;13.666;2022-07-12T02:05:05;68549.41;;;12.30;100.00
36354;BME280;22383;51.114;13.666;2022-07-12T02:07:33;68550.16;;;12.34;100.00
36354;BME280;22383;51.114;13.666;2022-07-12T02:10:00;68545.63;;;12.29;100.00
36354;BME280;22383;51.114;13.666;2022-07-12T02:12:27;68552.06;;;12.30;100.00
36354;BME280;22383;51.114;13.666;2022-07-12T02:14:55;68547.13;;;12.28;100.00
36354;BME280;22383;51.114;13.666;2022-07-12T02:17:22;68554.72;;;12.38;100.00
36354;BME280;22383;51.114;13.666;2022-07-12T02:19:49;68549.41;;;12.30;100.00
36354;BME280;22383;51.114;13.666;2022-07-12T02:22:17;68548.44;;;12.32;100.00
36354;BME280;22383;51.114;13.666;2022-07-12T02:24:44;68553.19;;;12.32;100.00
36354;BME280;22383;51.114;13.666;2022-07-12T02:27:12;68541.44;;;12.23;100.00
36354;BME280;22383;51.114;13.666;2022-07-12T02:29:39;68540.72;;;12.20;100.00
36354;BME280;22383;51.114;13.666;2022-07-12T02:32:08;68536.91;;;12.19;100.00
36354;BME280;22383;51.114;13.666;2022-07-12T02:34:35;68543.75;;;12.25;100.00
36354;BME280;22383;51.114;13.666;2022-07-12T02:37:03;68534.09;;;12.17;100.00
36354;BME280;22383;51.114;13.666;2022-07-12T02:39:30;68536.75;;;12.17;100.00
36354;BME280;22383;51.114;13.666;2022-07-12T02:41:57;68533.50;;;12.16;100.00
36354;BME280;22383;51.114;13.666;2022-07-12T02:44:24;68531.44;;;12.17;100.00
36354;BME280;22383;51.114;13.666;2022-07-12T02:46:52;68535.97;;;12.21;100.00
36354;BME280;22383;51.114;13.666;2022-07-12T02:49:19;68544.69;;;12.24;100.00
36354;BME280;22383;51.114;13.666;2022-07-12T02:51:46;68539.94;;;12.24;100.00
36354;BME280;22383;51.114;13.666;2022-07-12T02:54:13;68549.22;;;12.28;100.00
36354;BME280;22383;51.114;13.666;2022-07-12T02:56:41;68548.44;;;12.32;100.00
36354;BME280;22383;51.114;13.666;2022-07-12T02:59:08;68549.03;;;12.33;100.00
36354;BME280;22383;51.114;13.666;2022-07-12T03:01:35;68553.38;;;12.34;100.00
36354;BME280;22383;51.114;13.666;2022-07-12T03:04:03;68553.94;;;12.35;100.00
36354;BME280;22383;51.114;13.666;2022-07-12T03:06:30;68547.31;;;12.31;100.00
36354;BME280;22383;51.114;13.666;2022-07-12T03:08:58;68546.19;;;12.30;100.00
36354;BME280;22383;51.114;13.666;2022-07-12T03:11:25;68546.75;;;12.30;100.00
36354;BME280;22383;51.114;13.666;2022-07-12T03:13:52;68549.41;;;12.30;100.00
36354;BME280;22383;51.114;13.666;2022-07-12T03:16:20;68535.97;;;12.21;100.00
36354;BME280;22383;51.114;13.666;2022-07-12T03:18:47;68539.00;;;12.26;100.00
36354;BME280;22383;51.114;13.666;2022-07-12T03:21:15;68546.41;;;12.25;100.00
36354;BME280;22383;51.114;13.666;2022-07-12T03:23:43;68542.59;;;12.24;100.00
36354;BME280;22383;51.114;13.666;2022-07-12T03:26:11;68536.34;;;12.19;100.00
36354;BME280;22383;51.114;13.666;2022-07-12T03:28:39;68532.94;;;12.16;100.00
36354;BME280;22383;51.114;13.666;2022-07-12T03:31:06;68536.75;;;12.17;100.00
36354;BME280;22383;51.114;13.666;2022-07-12T03:33:34;68524.63;;;12.10;100.00
36354;BME280;22383;51.114;13.666;2022-07-12T03:36:01;68527.09;;;12.08;100.00
36354;BME280;22383;51.114;13.666;2022-07-12T03:38:28;68525.56;;;12.09;100.00
36354;BME280;22383;51.114;13.666;2022-07-12T03:40:55;68524.78;;;12.13;100.00
36354;BME280;22383;51.114;13.666;2022-07-12T03:43:22;68534.44;;;12.15;100.00
36354;BME280;22383;51.114;13.666;2022-07-12T03:45:50;68526.88;;;12.13;100.00
36354;BME280;22383;51.114;13.666;2022-07-12T03:48:17;68539.00;;;12.19;100.00
36354;BME280;22383;51.114;13.666;2022-07-12T03:50:44;68543.16;;;12.25;100.00
36354;BME280;22383;51.114;13.666;2022-07-12T03:53:13;68535.78;;;12.25;100.00
36354;BME280;22383;51.114;13.666;2022-07-12T03:55:40;68548.84;;;12.30;100.00
36354;BME280;22383;51.114;13.666;2022-07-12T03:58:07;68553.94;;;12.35;100.00
36354;BME280;22383;51.114;13.666;2022-07-12T04:00:34;68554.72;;;12.38;100.00
36354;BME280;22383;51.114;13.666;2022-07-12T04:03:02;68549.78;;;12.36;100.00
36354;BME280;22383;51.114;13.666;2022-07-12T04:05:29;68555.84;;;12.39;100.00
36354;BME280;22383;51.114;13.666;2022-07-12T04:07:57;68554.72;;;12.38;100.00
36354;BME280;22383;51.114;13.666;2022-07-12T04:10:24;68561.69;;;12.39;100.00
36354;BME280;22383;51.114;13.666;2022-07-12T04:12:51;68556.78;;;12.37;100.00
36354;BME280;22383;51.114;13.666;2022-07-12T04:15:19;68559.63;;;12.40;100.00
36354;BME280;22383;51.114;13.666;2022-07-12T04:17:47;68553.00;;;12.36;100.00
36354;BME280;22383;51.114;13.666;2022-07-12T04:20:14;68559.63;;;12.40;100.00
36354;BME280;22383;51.114;13.666;2022-07-12T04:22:42;68563.59;;;12.43;100.00
36354;BME280;22383;51.114;13.666;2022-07-12T04:25:09;68563.97;;;12.48;100.00
36354;BME280;22383;51.114;13.666;2022-07-12T04:27:36;68570.03;;;12.52;100.00
36354;BME280;22383;51.114;13.666;2022-07-12T04:30:04;68571.16;;;12.53;100.00
36354;BME280;22383;51.114;13.666;2022-07-12T04:32:32;68574.38;;;12.53;100.00
36354;BME280;22383;51.114;13.666;2022-07-12T04:35:00;68572.88;;;12.54;100.00
36354;BME280;22383;51.114;13.666;2022-07-12T04:37:27;68568.13;;;12.47;100.00
36354;BME280;22383;51.114;13.666;2022-07-12T04:39:55;68566.81;;;12.51;100.00
36354;BME280;22383;51.114;13.666;2022-07-12T04:42:22;68562.66;;;12.45;100.00
36354;BME280;22383;51.114;13.666;2022-07-12T04:44:49;68558.69;;;12.41;100.00
36354;BME280;22383;51.114;13.666;2022-07-12T04:47:16;68579.69;;;12.53;100.00
36354;BME280;22383;51.114;13.666;2022-07-12T04:49:45;68574.19;;;12.58;100.00
36354;BME280;22383;51.114;13.666;2022-07-12T04:52:12;68584.78;;;12.65;100.00
36354;BME280;22383;51.114;13.666;2022-07-12T04:54:39;68591.63;;;12.71;100.00
36354;BME280;22383;51.114;13.666;2022-07-12T04:57:07;68610.53;;;12.91;100.00
36354;BME280;22383;51.114;13.666;2022-07-12T04:59:34;68636.88;;;13.10;100.00
36354;BME280;22383;51.114;13.666;2022-07-12T05:02:02;68658.44;;;13.29;100.00
36354;BME280;22383;51.114;13.666;2022-07-12T05:04:33;68681.94;;;13.53;100.00
36354;BME280;22383;51.114;13.666;2022-07-12T05:07:02;68708.09;;;13.76;100.00
36354;BME280;22383;51.114;13.666;2022-07-12T05:09:29;68731.19;;;13.95;100.00
36354;BME280;22383;51.114;13.666;2022-07-12T05:11:57;68751.69;;;14.13;100.00
36354;BME280;22383;51.114;13.666;2022-07-12T05:14:25;68767.59;;;14.28;100.00
36354;BME280;22383;51.114;13.666;2022-07-12T05:16:52;68772.53;;;14.30;100.00
36354;BME280;22383;51.114;13.666;2022-07-12T05:19:19;68785.97;;;14.47;100.00
36354;BME280;22383;51.114;13.666;2022-07-12T05:21:49;68800.75;;;14.60;100.00
36354;BME280;22383;51.114;13.666;2022-07-12T05:24:21;68811.22;;;14.65;100.00
36354;BME280;22383;51.114;13.666;2022-07-12T05:26:48;68813.84;;;14.72;100.00
36354;BME280;22383;51.114;13.666;2022-07-12T05:29:15;68825.78;;;14.83;100.00
36354;BME280;22383;51.114;13.666;2022-07-12T05:31:43;68844.56;;;15.00;100.00
36354;BME280;22383;51.114;13.666;2022-07-12T05:34:10;68841.13;;;14.97;100.00
36354;BME280;22383;51.114;13.666;2022-07-12T05:36:37;68842.09;;;14.95;100.00
36354;BME280;22383;51.114;13.666;2022-07-12T05:39:05;68854.97;;;15.11;100.00
36354;BME280;22383;51.114;13.666;2022-07-12T05:41:32;68881.53;;;15.33;100.00
36354;BME280;22383;51.114;13.666;2022-07-12T05:44:00;68902.03;;;15.52;100.00
36354;BME280;22383;51.114;13.666;2022-07-12T05:46:27;68925.00;;;15.75;100.00
36354;BME280;22383;51.114;13.666;2022-07-12T05:48:54;68945.69;;;15.88;100.00
36354;BME280;22383;51.114;13.666;2022-07-12T05:51:22;68956.84;;;16.03;100.00
36354;BME280;22383;51.114;13.666;2022-07-12T05:54:08;68945.19;;;16.12;100.00
36354;BME280;22383;51.114;13.666;2022-07-12T05:56:37;68990.66;;;16.29;100.00
36354;BME280;22383;51.114;13.666;2022-07-12T05:59:04;68981.91;;;16.26;100.00
36354;BME280;22383;51.114;13.666;2022-07-12T06:01:31;68975.66;;;16.20;100.00
36354;BME280;22383;51.114;13.666;2022-07-12T06:03:59;68979.06;;;16.23;100.00
36354;BME280;22383;51.114;13.666;2022-07-12T06:06:26;69015.88;;;16.54;100.00
36354;BME280;22383;51.114;13.666;2022-07-12T06:08:54;69010.09;;;16.71;100.00
36354;BME280;22383;51.114;13.666;2022-07-12T06:11:21;69027.44;;;16.67;100.00
36354;BME280;22383;51.114;13.666;2022-07-12T06:13:48;69057.88;;;16.90;100.00
36354;BME280;22383;51.114;13.666;2022-07-12T06:16:17;69078.56;;;17.11;100.00
36354;BME280;22383;51.114;13.666;2022-07-12T06:18:44;69084.84;;;17.16;100.00
36354;BME280;22383;51.114;13.666;2022-07-12T06:21:12;69106.50;;;17.36;100.00
36354;BME280;22383;51.114;13.666;2022-07-12T06:23:39;69102.50;;;17.32;100.00
36354;BME280;22383;51.114;13.666;2022-07-12T06:26:06;69132.69;;;17.60;100.00
36354;BME280;22383;51.114;13.666;2022-07-12T06:28:34;69118.63;;;17.49;100.00
36354;BME280;22383;51.114;13.666;2022-07-12T06:31:01;69095.09;;;17.26;100.00
36354;BME280;22383;51.114;13.666;2022-07-12T06:33:28;69061.50;;;16.95;100.00
36354;BME280;22383;51.114;13.666;2022-07-12T06:35:56;69045.50;;;16.81;100.00
36354;BME280;22383;51.114;13.666;2022-07-12T06:38:23;69065.84;;;16.97;100.00
36354;BME280;22383;51.114;13.666;2022-07-12T06:40:50;69044.25;;;17.01;100.00
36354;BME280;22383;51.114;13.666;2022-07-12T06:43:18;69070.44;;;17.01;100.00
36354;BME280;22383;51.114;13.666;2022-07-12T06:45:45;69081.78;;;17.18;100.00
36354;BME280;22383;51.114;13.666;2022-07-12T06:48:12;69100.59;;;17.28;100.00
36354;BME280;22383;51.114;13.666;2022-07-12T06:50:40;69093.38;;;17.24;100.00
36354;BME280;22383;51.114;13.666;2022-07-12T06:53:07;69126.84;;;17.52;100.00
36354;BME280;22383;51.114;13.666;2022-07-12T06:55:35;69153.97;;;17.81;100.00
36354;BME280;22383;51.114;13.666;2022-07-12T06:58:02;69190.28;;;18.11;100.00
36354;BME280;22383;51.114;13.666;2022-07-12T07:00:29;69219.38;;;18.38;100.00
36354;BME280;22383;51.114;13.666;2022-07-12T07:03:00;69216.69;;;18.38;100.00
36354;BME280;22383;51.114;13.666;2022-07-12T07:05:27;69225.66;;;18.43;100.00
36354;BME280;22383;51.114;13.666;2022-07-12T07:07:56;69201.69;;;18.22;100.00
36354;BME280;22383;51.114;13.666;2022-07-12T07:10:24;69222.63;;;18.38;100.00
36354;BME280;22383;51.114;13.666;2022-07-12T07:12:52;69226.22;;;18.44;100.00
36354;BME280;22383;51.114;13.666;2022-07-12T07:15:20;69236.09;;;18.55;100.00
36354;BME280;22383;51.114;13.666;2022-07-12T07:17:47;69223.38;;;18.41;100.00
36354;BME280;22383;51.114;13.666;2022-07-12T07:20:15;69227.75;;;18.43;100.00
36354;BME280;22383;51.114;13.666;2022-07-12T07:22:42;69245.78;;;18.64;100.00
36354;BME280;22383;51.114;13.666;2022-07-12T07:25:09;69243.13;;;18.81;100.00
36354;BME280;22383;51.114;13.666;2022-07-12T07:27:50;69291.66;;;19.00;100.00
36354;BME280;22383;51.114;13.666;2022-07-12T07:30:35;69305.50;;;19.15;100.00
36354;BME280;22383;51.114;13.666;2022-07-12T07:33:22;69301.13;;;19.14;100.00
36354;BME280;22383;51.114;13.666;2022-07-12T07:35:50;69305.34;;;19.13;100.00
36354;BME280;22383;51.114;13.666;2022-07-12T07:38:19;69288.97;;;19.00;100.00
36354;BME280;22383;51.114;13.666;2022-07-12T07:40:46;69277.56;;;18.90;100.00
36354;BME280;22383;51.114;13.666;2022-07-12T07:43:13;69280.25;;;18.90;100.00
36354;BME280;22383;51.114;13.666;2022-07-12T07:45:41;69250.34;;;18.68;100.00
36354;BME280;22383;51.114;13.666;2022-07-12T07:48:08;69234.78;;;18.51;100.00
36354;BME280;22383;51.114;13.666;2022-07-12T07:50:53;69221.66;;;18.40;100.00
36354;BME280;22383;51.114;13.666;2022-07-12T07:53:24;69200.38;;;18.42;100.00
36354;BME280;22383;51.114;13.666;2022-07-12T07:55:52;69245.03;;;18.61;100.00
36354;BME280;22383;51.114;13.666;2022-07-12T07:58:19;69271.88;;;18.85;100.00
36354;BME280;22383;51.114;13.666;2022-07-12T08:00:50;69299.41;;;19.12;100.00
36354;BME280;22383;51.114;13.666;2022-07-12T08:03:21;69302.09;;;19.12;100.00
36354;BME280;22383;51.114;13.666;2022-07-12T08:05:48;69324.00;;;19.27;100.00
36354;BME280;22383;51.114;13.666;2022-07-12T08:08:18;69335.59;;;19.40;100.00
36354;BME280;22383;51.114;13.666;2022-07-12T08:10:46;69328.16;;;19.57;100.00
36354;BME280;22383;51.114;13.666;2022-07-12T08:13:13;69368.88;;;19.72;100.00
36354;BME280;22383;51.114;13.666;2022-07-12T08:15:40;69400.84;;;20.01;100.00
36354;BME280;22383;51.114;13.666;2022-07-12T08:18:08;69403.69;;;20.03;100.00
36354;BME280;22383;51.114;13.666;2022-07-12T08:20:35;69398.56;;;19.99;100.00
36354;BME280;22383;51.114;13.666;2022-07-12T08:23:14;69377.81;;;20.02;100.00
36354;BME280;22383;51.114;13.666;2022-07-12T08:25:42;69411.13;;;20.10;100.00
36354;BME280;22383;51.114;13.666;2022-07-12T08:28:10;69386.75;;;19.91;100.00
36354;BME280;22383;51.114;13.666;2022-07-12T08:30:38;69314.81;;;19.26;100.00
36354;BME280;22383;51.114;13.666;2022-07-12T08:33:12;69351.00;;;19.54;100.00
36354;BME280;22383;51.114;13.666;2022-07-12T08:35:40;69419.69;;;20.18;100.00
36354;BME280;22383;51.114;13.666;2022-07-12T08:38:07;69438.53;;;20.35;100.00
36354;BME280;22383;51.114;13.666;2022-07-12T08:40:35;69372.28;;;19.75;100.00
36354;BME280;22383;51.114;13.666;2022-07-12T08:43:03;69392.69;;;19.91;100.00
36354;BME280;22383;51.114;13.666;2022-07-12T08:45:30;69453.38;;;20.48;100.00
36354;BME280;22383;51.114;13.666;2022-07-12T08:47:57;69478.53;;;20.71;100.00
36354;BME280;22383;51.114;13.666;2022-07-12T08:50:25;69382.59;;;19.85;100.00
36354;BME280;22383;51.114;13.666;2022-07-12T08:52:55;69386.59;;;19.88;100.00
36354;BME280;22383;51.114;13.666;2022-07-12T08:55:30;69448.97;;;20.47;100.00
36354;BME280;22383;51.114;13.666;2022-07-12T08:58:00;69461.38;;;20.55;100.00
36354;BME280;22383;51.114;13.666;2022-07-12T09:00:39;69496.22;;;20.87;100.00
36354;BME280;22383;51.114;13.666;2022-07-12T09:03:14;69451.09;;;20.46;97.78
36354;BME280;22383;51.114;13.666;2022-07-12T09:05:52;69473.22;;;20.64;92.29
36354;BME280;22383;51.114;13.666;2022-07-12T09:08:25;69511.81;;;21.03;80.65
36354;BME280;22383;51.114;13.666;2022-07-12T09:10:58;69560.44;;;21.40;80.15
36354;BME280;22383;51.114;13.666;2022-07-12T09:13:48;69524.38;;;21.14;71.39
36354;BME280;22383;51.114;13.666;2022-07-12T09:16:26;69447.25;;;20.45;78.81
36354;BME280;22383;51.114;13.666;2022-07-12T09:19:16;69426.94;;;20.22;84.57
36354;BME280;22383;51.114;13.666;2022-07-12T09:21:52;69494.09;;;20.87;92.45
36354;BME280;22383;51.114;13.666;2022-07-12T09:24:26;69544.38;;;21.32;77.25
36354;BME280;22383;51.114;13.666;2022-07-12T09:27:02;69573.38;;;21.56;76.63
36354;BME280;22383;51.114;13.666;2022-07-12T09:29:30;69511.66;;;21.01;78.55
36354;BME280;22383;51.114;13.666;2022-07-12T09:32:06;69462.69;;;20.59;81.26
36354;BME280;22383;51.114;13.666;2022-07-12T09:34:56;69430.72;;;20.30;87.32
36354;BME280;22383;51.114;13.666;2022-07-12T09:37:42;69472.25;;;20.65;91.49
36354;BME280;22383;51.114;13.666;2022-07-12T09:40:10;69528.63;;;21.13;79.38
36354;BME280;22383;51.114;13.666;2022-07-12T09:42:39;69487.66;;;20.79;75.94
36354;BME280;22383;51.114;13.666;2022-07-12T09:45:07;69458.13;;;20.55;73.06
36354;BME280;22383;51.114;13.666;2022-07-12T09:47:36;69423.84;;;20.24;72.64
36354;BME280;22383;51.114;13.666;2022-07-12T09:50:04;69386.75;;;19.91;74.98
36354;BME280;22383;51.114;13.666;2022-07-12T09:52:39;69469.38;;;20.63;88.63
36354;BME280;22383;51.114;13.666;2022-07-12T09:55:09;69554.66;;;21.42;71.72
36354;BME280;22383;51.114;13.666;2022-07-12T09:57:40;69593.94;;;21.75;73.27
36354;BME280;22383;51.114;13.666;2022-07-12T10:00:09;69654.56;;;22.29;69.06
36354;BME280;22383;51.114;13.666;2022-07-12T10:02:39;69680.84;;;22.53;59.89
36354;BME280;22383;51.114;13.666;2022-07-12T10:05:09;69714.75;;;22.85;56.83
36354;BME280;22383;51.114;13.666;2022-07-12T10:07:38;69711.50;;;23.02;58.76
36354;BME280;22383;51.114;13.666;2022-07-12T10:10:06;69719.75;;;22.88;53.45
36354;BME280;22383;51.114;13.666;2022-07-12T10:12:35;69688.56;;;22.55;51.99
36354;BME280;22383;51.114;13.666;2022-07-12T10:15:04;69638.53;;;22.15;58.94
36354;BME280;22383;51.114;13.666;2022-07-12T10:17:37;69662.56;;;22.36;58.08
36354;BME280;22383;51.114;13.666;2022-07-12T10:22:40;69580.00;;;21.84;54.43
36354;BME280;22383;51.114;13.666;2022-07-12T10:27:53;69585.53;;;21.69;58.19
36354;BME280;22383;51.114;13.666;2022-07-12T10:30:22;69568.56;;;21.74;54.38
36354;BME280;22383;51.114;13.666;2022-07-12T10:32:53;69651.69;;;22.26;53.75
36354;BME280;22383;51.114;13.666;2022-07-12T10:35:22;69717.63;;;22.88;54.72
36354;BME280;22383;51.114;13.666;2022-07-12T10:40:40;69769.56;;;23.32;46.70
36354;BME280;22383;51.114;13.666;2022-07-12T10:45:39;69764.97;;;23.28;46.45
36354;BME280;22383;51.114;13.666;2022-07-12T10:48:12;69745.91;;;23.09;46.23
36354;BME280;22383;51.114;13.666;2022-07-12T10:58:37;69824.09;;;23.84;48.41
36354;BME280;22383;51.114;13.666;2022-07-12T11:01:07;69793.00;;;23.53;47.64
36354;BME280;22383;51.114;13.666;2022-07-12T11:03:51;69773.00;;;23.35;47.03
36354;BME280;22383;51.114;13.666;2022-07-12T11:06:24;69626.84;;;22.26;46.95
36354;BME280;22383;51.114;13.666;2022-07-12T11:11:21;69740.03;;;23.01;46.51
36354;BME280;22383;51.114;13.666;2022-07-12T11:13:49;69802.16;;;23.62;47.43
36354;BME280;22383;51.114;13.666;2022-07-12T11:16:17;69821.63;;;23.79;45.56
36354;BME280;22383;51.114;13.666;2022-07-12T11:18:45;69790.44;;;23.73;45.23
36354;BME280;22383;51.114;13.666;2022-07-12T11:21:12;69741.34;;;23.04;46.14
36354;BME280;22383;51.114;13.666;2022-07-12T11:23:40;69706.28;;;22.71;46.52
36354;BME280;22383;51.114;13.666;2022-07-12T11:26:09;69641.56;;;22.20;48.20
36354;BME280;22383;51.114;13.666;2022-07-12T11:28:39;69663.53;;;22.35;50.52
36354;BME280;22383;51.114;13.666;2022-07-12T11:31:13;69774.53;;;23.34;48.16
36354;BME280;22383;51.114;13.666;2022-07-12T11:33:43;69710.75;;;22.82;44.99
36354;BME280;22383;51.114;13.666;2022-07-12T11:36:12;69624.41;;;22.04;46.70
36354;BME280;22383;51.114;13.666;2022-07-12T11:38:42;69690.19;;;22.63;50.04
36354;BME280;22383;51.114;13.666;2022-07-12T11:41:12;69822.38;;;23.82;48.65
36354;BME280;22383;51.114;13.666;2022-07-12T11:43:40;69822.38;;;23.82;44.75
36354;BME280;22383;51.114;13.666;2022-07-12T11:46:07;69713.19;;;23.03;46.61
36354;BME280;22383;51.114;13.666;2022-07-12T11:48:36;69703.91;;;22.76;48.80
36354;BME280;22383;51.114;13.666;2022-07-12T11:51:07;69741.81;;;23.29;48.17
36354;BME280;22383;51.114;13.666;2022-07-12T11:53:38;69776.41;;;23.38;46.10
36354;BME280;22383;51.114;13.666;2022-07-12T11:56:08;69837.81;;;23.96;46.95
36354;BME280;22383;51.114;13.666;2022-07-12T11:58:36;69821.31;;;23.74;44.13
36354;BME280;22383;51.114;13.666;2022-07-12T12:01:10;69808.47;;;23.67;43.67
36354;BME280;22383;51.114;13.666;2022-07-12T12:03:46;69868.59;;;24.21;44.13
36354;BME280;22383;51.114;13.666;2022-07-12T12:06:17;69865.28;;;24.21;44.07
36354;BME280;22383;51.114;13.666;2022-07-12T12:08:44;69800.19;;;23.82;43.01
36354;BME280;22383;51.114;13.666;2022-07-12T12:11:12;69759.25;;;23.23;45.34
36354;BME280;22383;51.114;13.666;2022-07-12T12:13:39;69723.75;;;22.91;45.64
36354;BME280;22383;51.114;13.666;2022-07-12T12:16:10;69695.31;;;22.68;46.72
36354;BME280;22383;51.114;13.666;2022-07-12T12:18:39;69671.47;;;22.49;48.55
36354;BME280;22383;51.114;13.666;2022-07-12T12:21:09;69763.41;;;23.29;46.52
36354;BME280;22383;51.114;13.666;2022-07-12T12:23:38;69850.44;;;24.07;46.10
36354;BME280;22383;51.114;13.666;2022-07-12T12:26:16;69841.25;;;23.99;43.73
36354;BME280;22383;51.114;13.666;2022-07-12T12:28:51;69795.59;;;23.77;43.59
36354;BME280;22383;51.114;13.666;2022-07-12T12:31:23;69857.13;;;24.11;44.84
36354;BME280;22383;51.114;13.666;2022-07-12T12:33:52;69902.19;;;24.49;44.52
36354;BME280;22383;51.114;13.666;2022-07-12T12:36:22;69897.50;;;24.69;45.12
36354;BME280;22383;51.114;13.666;2022-07-12T12:38:54;69920.69;;;24.68;43.16
36354;BME280;22383;51.114;13.666;2022-07-12T12:41:24;69826.78;;;23.84;43.16
36354;BME280;22383;51.114;13.666;2022-07-12T12:44:11;69735.19;;;23.01;43.80
36354;BME280;22383;51.114;13.666;2022-07-12T12:46:51;69718.38;;;23.08;47.84
36354;BME280;22383;51.114;13.666;2022-07-12T12:49:50;69815.50;;;23.76;44.13
36354;BME280;22383;51.114;13.666;2022-07-12T12:52:24;69773.13;;;23.38;46.05
36354;BME280;22383;51.114;13.666;2022-07-12T12:54:53;69735.59;;;22.99;44.04
36354;BME280;22383;51.114;13.666;2022-07-12T12:57:21;69707.75;;;22.77;46.79
36354;BME280;22383;51.114;13.666;2022-07-12T12:59:52;69747.81;;;23.13;46.60
36354;BME280;22383;51.114;13.666;2022-07-12T13:02:20;69763.97;;;23.30;44.77
36354;BME280;22383;51.114;13.666;2022-07-12T13:04:49;69752.56;;;23.19;44.56
36354;BME280;22383;51.114;13.666;2022-07-12T13:07:17;69800.44;;;23.60;45.49
36354;BME280;22383;51.114;13.666;2022-07-12T13:09:44;69853.53;;;24.05;43.66
36354;BME280;22383;51.114;13.666;2022-07-12T13:12:12;69809.91;;;23.90;44.74
36354;BME280;22383;51.114;13.666;2022-07-12T13:14:39;69786.53;;;23.45;45.46